Time;durP1;ratioP1;P1;durP2;ratioP2;P2;SDS_P1;SDS_P2;PMS_P1;PMS_P2;Temp;Humidity;BMP_temperature;BMP_pressure;BME280_temperature;BME280_humidity;BME280_pressure;Samples;Min_cycle;Max_cycle;Signal;HPM_P1;HPM_P2
2024/01/25 00:00:53;;;;;;;29.42;15.27;;;;;;;;;;6302641;28;20051;-71
2024/01/25 00:03:55;;;;;;;32.58;16.67;;;;;;;;;;6303734;28;20113;-72
2024/01/25 00:06:57;;;;;;;15.10;9.77;;;;;;;;;;6312274;28;20089;-71
2024/01/25 00:10:01;;;;;;;28.70;10.98;;;;;;;;;;6312664;28;20482;-72
2024/01/25 00:13:03;;;;;;;25.63;11.30;;;;;;;;;;6302423;28;20036;-72
2024/01/25 00:16:05;;;;;;;22.63;11.68;;;;;;;;;;6301048;28;20048;-71
2024/01/25 00:19:07;;;;;;;18.25;11.15;;;;;;;;;;6301366;28;20557;-72
2024/01/25 00:22:10;;;;;;;30.52;16.98;;;;;;;;;;6313700;28;20074;-70
2024/01/25 00:25:12;;;;;;;27.83;16.35;;;;;;;;;;6315308;28;20040;-71
2024/01/25 00:28:14;;;;;;;20.33;11.20;;;;;;;;;;6295826;28;20079;-70
2024/01/25 00:31:16;;;;;;;19.55;10.90;;;;;;;;;;6310647;28;20509;-71
2024/01/25 00:34:18;;;;;;;25.33;15.02;;;;;;;;;;6315104;28;20043;-71
2024/01/25 00:37:21;;;;;;;21.23;11.98;;;;;;;;;;6314324;28;20059;-70
2024/01/25 00:40:23;;;;;;;19.33;12.95;;;;;;;;;;6303807;28;20044;-71
2024/01/25 00:43:26;;;;;;;22.15;12.90;;;;;;;;;;6312467;28;20044;-71
2024/01/25 00:46:29;;;;;;;23.63;12.15;;;;;;;;;;6304609;28;20056;-71
2024/01/25 00:49:32;;;;;;;21.20;11.93;;;;;;;;;;6289686;28;20029;-71
2024/01/25 00:52:35;;;;;;;22.83;11.25;;;;;;;;;;6294141;28;20044;-71
2024/01/25 00:55:42;;;;;;;20.83;10.35;;;;;;;;;;6310849;28;20055;-72
2024/01/25 00:58:44;;;;;;;17.45;10.35;;;;;;;;;;6296310;28;20043;-72
2024/01/25 01:01:48;;;;;;;24.13;11.80;;;;;;;;;;6309829;28;20050;-71
2024/01/25 01:04:51;;;;;;;16.17;10.00;;;;;;;;;;6308789;28;20048;-71
2024/01/25 01:07:54;;;;;;;22.65;10.73;;;;;;;;;;6296394;28;20082;-71
2024/01/25 01:10:56;;;;;;;23.30;13.27;;;;;;;;;;6295139;28;20044;-72
2024/01/25 01:13:58;;;;;;;33.13;16.00;;;;;;;;;;6300654;28;20140;-72
2024/01/25 01:17:00;;;;;;;32.15;14.15;;;;;;;;;;6302178;28;20136;-72
2024/01/25 01:20:02;;;;;;;27.48;14.23;;;;;;;;;;6299114;28;20044;-71
2024/01/25 01:23:06;;;;;;;22.10;11.95;;;;;;;;;;6307379;28;20147;-71
2024/01/25 01:26:08;;;;;;;19.75;11.77;;;;;;;;;;6299243;28;20060;-71
2024/01/25 01:29:10;;;;;;;19.40;11.25;;;;;;;;;;6303335;28;20044;-71
2024/01/25 01:32:12;;;;;;;20.27;12.55;;;;;;;;;;6305995;28;20510;-72
2024/01/25 01:35:14;;;;;;;28.33;13.02;;;;;;;;;;6316322;28;20049;-72
2024/01/25 01:38:16;;;;;;;22.02;11.82;;;;;;;;;;6284613;28;20110;-71
2024/01/25 01:41:18;;;;;;;23.13;12.38;;;;;;;;;;6303263;28;20044;-71
2024/01/25 01:44:20;;;;;;;21.80;11.85;;;;;;;;;;6309572;28;20182;-71
2024/01/25 01:47:22;;;;;;;22.63;11.63;;;;;;;;;;6315382;28;20045;-72
2024/01/25 01:50:25;;;;;;;22.85;11.85;;;;;;;;;;6300416;28;20067;-72
2024/01/25 01:53:27;;;;;;;20.58;11.88;;;;;;;;;;6296028;28;20048;-72
2024/01/25 01:56:31;;;;;;;22.52;10.93;;;;;;;;;;6291281;28;20692;-69
2024/01/25 01:59:33;;;;;;;20.33;12.43;;;;;;;;;;6302771;28;20514;-70
2024/01/25 02:02:35;;;;;;;22.83;13.25;;;;;;;;;;6291620;28;20047;-69
2024/01/25 02:05:38;;;;;;;25.83;15.00;;;;;;;;;;6301477;28;20059;-70
2024/01/25 02:08:41;;;;;;;22.08;13.65;;;;;;;;;;6306051;28;20083;-71
2024/01/25 02:11:43;;;;;;;26.92;14.27;;;;;;;;;;6307736;28;20045;-71
2024/01/25 02:14:46;;;;;;;24.33;13.43;;;;;;;;;;6297617;28;20052;-71
2024/01/25 02:17:48;;;;;;;25.48;13.90;;;;;;;;;;6308187;28;20808;-71
2024/01/25 02:20:51;;;;;;;22.05;12.73;;;;;;;;;;6313359;28;20059;-71
2024/01/25 02:23:54;;;;;;;25.85;13.70;;;;;;;;;;6317549;28;20649;-71
2024/01/25 02:26:57;;;;;;;23.60;15.40;;;;;;;;;;6307214;28;20454;-71
2024/01/25 02:29:59;;;;;;;26.05;13.65;;;;;;;;;;6307467;28;20036;-72
2024/01/25 02:33:01;;;;;;;43.10;18.88;;;;;;;;;;6313129;28;20048;-71
2024/01/25 02:36:04;;;;;;;37.15;16.10;;;;;;;;;;6313032;28;20041;-70
2024/01/25 02:39:06;;;;;;;27.38;15.35;;;;;;;;;;6319989;28;20043;-71
2024/01/25 02:42:08;;;;;;;27.25;16.92;;;;;;;;;;6295906;28;20048;-71
2024/01/25 02:45:10;;;;;;;36.15;18.33;;;;;;;;;;6304233;28;20044;-71
2024/01/25 02:48:12;;;;;;;25.10;14.60;;;;;;;;;;6311902;28;20178;-70
2024/01/25 02:51:14;;;;;;;31.23;17.23;;;;;;;;;;6298733;28;20044;-71
2024/01/25 02:54:16;;;;;;;34.55;18.30;;;;;;;;;;6313349;28;20075;-71
2024/01/25 02:57:18;;;;;;;30.38;15.27;;;;;;;;;;6316316;28;20491;-71
2024/01/25 03:00:21;;;;;;;24.45;13.30;;;;;;;;;;6316968;28;20617;-71
2024/01/25 03:03:23;;;;;;;19.27;12.52;;;;;;;;;;6298331;28;20078;-70
2024/01/25 03:06:25;;;;;;;25.05;11.35;;;;;;;;;;6306951;28;20154;-71
2024/01/25 03:09:28;;;;;;;21.50;8.68;;;;;;;;;;6324856;28;20090;-71
2024/01/25 03:12:30;;;;;;;14.85;8.30;;;;;;;;;;6317442;28;20068;-70
2024/01/25 03:15:33;;;;;;;12.57;8.52;;;;;;;;;;6303631;28;20055;-69
2024/01/25 03:18:35;;;;;;;10.27;4.63;;;;;;;;;;6317526;28;20044;-71
2024/01/25 03:21:38;;;;;;;11.52;5.05;;;;;;;;;;6310873;28;20051;-71
2024/01/25 03:24:40;;;;;;;9.30;4.32;;;;;;;;;;6282659;28;20060;-71
2024/01/25 03:27:42;;;;;;;7.82;3.53;;;;;;;;;;6290337;28;20122;-71
2024/01/25 03:30:44;;;;;;;5.32;3.90;;;;;;;;;;6312428;28;20036;-71
2024/01/25 03:33:46;;;;;;;6.40;3.30;;;;;;;;;;6303736;28;20048;-71
2024/01/25 03:36:50;;;;;;;6.97;4.03;;;;;;;;;;6310847;28;20039;-71
2024/01/25 03:39:52;;;;;;;5.45;4.53;;;;;;;;;;6301253;28;20430;-71
2024/01/25 03:42:54;;;;;;;7.13;4.80;;;;;;;;;;6306752;28;20097;-71
2024/01/25 03:46:16;;;;;;;3.80;3.22;;;;;;;;;;6311061;28;20044;-72
2024/01/25 03:49:19;;;;;;;7.40;3.50;;;;;;;;;;6306188;28;20044;-72
2024/01/25 03:52:21;;;;;;;9.70;7.30;;;;;;;;;;6308723;28;20767;-72
2024/01/25 03:55:24;;;;;;;6.22;4.90;;;;;;;;;;6318194;28;20485;-71
2024/01/25 03:58:26;;;;;;;5.03;3.20;;;;;;;;;;6303865;28;20175;-71
2024/01/25 04:01:28;;;;;;;8.77;3.83;;;;;;;;;;6298585;28;20036;-72
2024/01/25 04:04:33;;;;;;;5.95;3.78;;;;;;;;;;6308843;28;20608;-72
2024/01/25 04:07:36;;;;;;;6.05;2.58;;;;;;;;;;6296322;28;20055;-72
2024/01/25 04:10:38;;;;;;;7.22;6.53;;;;;;;;;;6273853;28;20770;-70
2024/01/25 04:13:41;;;;;;;5.65;2.97;;;;;;;;;;6307691;28;20065;-71
2024/01/25 04:16:46;;;;;;;12.07;6.10;;;;;;;;;;6310752;28;20605;-71
2024/01/25 04:19:48;;;;;;;17.27;8.77;;;;;;;;;;6312682;28;20032;-71
2024/01/25 04:22:52;;;;;;;12.48;7.93;;;;;;;;;;6319809;28;20453;-71
2024/01/25 04:25:55;;;;;;;12.82;7.93;;;;;;;;;;6318590;28;20043;-70
2024/01/25 04:28:57;;;;;;;12.90;7.70;;;;;;;;;;6303358;28;20051;-71
2024/01/25 04:31:59;;;;;;;16.58;9.40;;;;;;;;;;6306249;28;20051;-71
2024/01/25 04:35:05;;;;;;;19.20;11.18;;;;;;;;;;6295387;28;20097;-72
2024/01/25 04:38:07;;;;;;;16.88;11.35;;;;;;;;;;6306367;28;20036;-71
2024/01/25 04:41:09;;;;;;;16.45;10.07;;;;;;;;;;6292523;28;20044;-71
2024/01/25 04:44:11;;;;;;;12.07;5.93;;;;;;;;;;6303437;28;20048;-70
2024/01/25 04:47:13;;;;;;;31.60;18.08;;;;;;;;;;6289806;28;20054;-71
2024/01/25 04:50:15;;;;;;;21.58;15.85;;;;;;;;;;6317031;28;20036;-73
2024/01/25 04:53:20;;;;;;;11.52;6.70;;;;;;;;;;6313332;28;20044;-71
2024/01/25 04:56:22;;;;;;;10.23;3.60;;;;;;;;;;6310136;28;20052;-72
2024/01/25 04:59:24;;;;;;;10.60;5.95;;;;;;;;;;6316085;28;20474;-71
2024/01/25 05:02:28;;;;;;;8.73;5.13;;;;;;;;;;6283197;28;21114;-72
2024/01/25 05:05:30;;;;;;;14.45;7.55;;;;;;;;;;6312185;28;20532;-71
2024/01/25 05:08:33;;;;;;;22.15;11.75;;;;;;;;;;6317075;28;20739;-71
2024/01/25 05:11:39;;;;;;;6.55;3.35;;;;;;;;;;6288196;28;20876;-71
2024/01/25 05:14:42;;;;;;;6.10;3.40;;;;;;;;;;6287379;28;20043;-71
2024/01/25 05:17:44;;;;;;;6.68;3.15;;;;;;;;;;6321668;28;20490;-71
2024/01/25 05:20:46;;;;;;;7.20;6.25;;;;;;;;;;6313494;28;20518;-71
2024/01/25 05:23:48;;;;;;;4.55;3.17;;;;;;;;;;6303002;28;20044;-70
2024/01/25 05:26:50;;;;;;;5.90;3.65;;;;;;;;;;6324630;28;20078;-71
2024/01/25 05:29:53;;;;;;;5.78;3.30;;;;;;;;;;6289926;28;20040;-71
2024/01/25 05:32:55;;;;;;;8.10;4.18;;;;;;;;;;6311102;28;20043;-71
2024/01/25 05:35:57;;;;;;;6.07;3.85;;;;;;;;;;6293416;28;20044;-72
2024/01/25 05:38:59;;;;;;;8.15;3.88;;;;;;;;;;6310050;28;20032;-71
2024/01/25 05:42:01;;;;;;;5.47;3.13;;;;;;;;;;6306232;28;20039;-71
2024/01/25 05:45:04;;;;;;;7.28;4.03;;;;;;;;;;6306857;28;20075;-73
2024/01/25 05:48:06;;;;;;;7.30;3.47;;;;;;;;;;6281294;28;20043;-73
2024/01/25 05:51:09;;;;;;;8.18;4.47;;;;;;;;;;6312380;28;20084;-71
2024/01/25 05:54:11;;;;;;;13.15;6.43;;;;;;;;;;6309806;28;20117;-71
2024/01/25 05:57:13;;;;;;;6.32;4.35;;;;;;;;;;6307478;28;20056;-73
2024/01/25 06:00:16;;;;;;;4.55;3.03;;;;;;;;;;6307128;28;20044;-73
2024/01/25 06:03:23;;;;;;;5.65;3.25;;;;;;;;;;6309895;28;20055;-72
2024/01/25 06:06:26;;;;;;;3.88;2.22;;;;;;;;;;6304288;28;20039;-72
2024/01/25 06:09:29;;;;;;;5.97;2.22;;;;;;;;;;6293875;28;20565;-71
2024/01/25 06:12:31;;;;;;;5.88;4.50;;;;;;;;;;6309357;28;20085;-72
2024/01/25 06:15:33;;;;;;;3.90;2.75;;;;;;;;;;6315760;28;20039;-72
2024/01/25 06:18:35;;;;;;;5.80;2.80;;;;;;;;;;6311966;28;20052;-72
2024/01/25 06:21:38;;;;;;;7.53;3.83;;;;;;;;;;6316136;28;20652;-72
2024/01/25 06:24:40;;;;;;;4.32;1.95;;;;;;;;;;6293081;28;20075;-70
2024/01/25 06:27:43;;;;;;;3.85;2.28;;;;;;;;;;6299211;28;20072;-72
2024/01/25 06:30:47;;;;;;;4.95;2.00;;;;;;;;;;6315207;28;20072;-72
2024/01/25 06:33:50;;;;;;;7.03;3.28;;;;;;;;;;6312306;28;20039;-71
2024/01/25 06:36:53;;;;;;;5.95;2.65;;;;;;;;;;6281916;28;20120;-71
2024/01/25 06:39:55;;;;;;;5.97;1.92;;;;;;;;;;6279969;28;20036;-72
2024/01/25 06:42:57;;;;;;;6.43;3.88;;;;;;;;;;6302637;28;20156;-72
2024/01/25 06:45:59;;;;;;;7.22;5.43;;;;;;;;;;6291293;28;20709;-72
2024/01/25 06:49:02;;;;;;;10.32;5.10;;;;;;;;;;6305028;28;20598;-72
2024/01/25 06:52:05;;;;;;;45.15;14.35;;;;;;;;;;6296917;28;20134;-72
2024/01/25 06:55:08;;;;;;;47.78;14.02;;;;;;;;;;6307547;28;20036;-72
2024/01/25 06:58:10;;;;;;;61.58;18.27;;;;;;;;;;6317961;28;20048;-72
2024/01/25 07:01:13;;;;;;;56.30;19.85;;;;;;;;;;6313615;28;20082;-72
2024/01/25 07:04:17;;;;;;;30.25;9.48;;;;;;;;;;6306306;28;20032;-71
2024/01/25 07:07:19;;;;;;;61.25;19.98;;;;;;;;;;6308085;28;20052;-71
2024/01/25 07:10:22;;;;;;;22.80;9.48;;;;;;;;;;6315762;28;20515;-70
2024/01/25 07:13:24;;;;;;;51.67;18.50;;;;;;;;;;6307340;28;20119;-72
2024/01/25 07:16:26;;;;;;;40.65;15.40;;;;;;;;;;6308182;28;20575;-72
2024/01/25 07:19:28;;;;;;;25.15;11.85;;;;;;;;;;6314901;28;20134;-71
2024/01/25 07:22:31;;;;;;;37.60;16.20;;;;;;;;;;6316285;28;20059;-71
2024/01/25 07:25:33;;;;;;;44.10;17.73;;;;;;;;;;6302989;28;20043;-71
2024/01/25 07:28:35;;;;;;;41.67;17.15;;;;;;;;;;6323866;28;20120;-72
2024/01/25 07:31:37;;;;;;;31.15;9.80;;;;;;;;;;6301394;28;20516;-72
2024/01/25 07:34:39;;;;;;;16.88;8.02;;;;;;;;;;6296781;28;20213;-71
2024/01/25 07:37:41;;;;;;;18.42;7.05;;;;;;;;;;6311366;28;20049;-71
2024/01/25 07:40:43;;;;;;;13.48;6.28;;;;;;;;;;6312126;28;20047;-72
2024/01/25 07:43:46;;;;;;;19.27;7.55;;;;;;;;;;6307121;28;20150;-70
2024/01/25 07:46:47;;;;;;;14.32;6.72;;;;;;;;;;6299628;28;20079;-71
2024/01/25 07:49:49;;;;;;;21.77;9.68;;;;;;;;;;6314302;28;20036;-70
2024/01/25 07:52:52;;;;;;;23.00;12.85;;;;;;;;;;6308815;28;20108;-71
2024/01/25 07:55:54;;;;;;;10.65;6.03;;;;;;;;;;6307943;28;20047;-72
2024/01/25 07:58:59;;;;;;;10.63;9.43;;;;;;;;;;6304986;28;20660;-72
2024/01/25 08:02:02;;;;;;;9.52;8.48;;;;;;;;;;6314489;28;20122;-70
2024/01/25 08:05:05;;;;;;;9.98;4.68;;;;;;;;;;6303361;28;20055;-71
2024/01/25 08:08:08;;;;;;;13.32;7.90;;;;;;;;;;6301015;28;20454;-71
2024/01/25 08:11:11;;;;;;;12.15;7.57;;;;;;;;;;6306387;28;20398;-70
2024/01/25 08:14:12;;;;;;;10.95;7.15;;;;;;;;;;6310109;28;20071;-70
2024/01/25 08:17:15;;;;;;;8.38;3.42;;;;;;;;;;6307149;28;20126;-72
2024/01/25 08:20:17;;;;;;;11.43;5.78;;;;;;;;;;6296406;28;20051;-70
2024/01/25 08:23:19;;;;;;;10.43;7.47;;;;;;;;;;6313566;28;20598;-70
2024/01/25 08:26:21;;;;;;;10.27;4.85;;;;;;;;;;6316702;28;20046;-70
2024/01/25 08:29:23;;;;;;;14.82;6.05;;;;;;;;;;6296920;28;20056;-70
2024/01/25 08:32:25;;;;;;;16.95;7.72;;;;;;;;;;6297900;28;20036;-71
2024/01/25 08:35:27;;;;;;;8.80;4.20;;;;;;;;;;6310329;28;20047;-70
2024/01/25 08:38:30;;;;;;;16.13;7.05;;;;;;;;;;6309335;28;20052;-71
2024/01/25 08:41:32;;;;;;;9.85;5.40;;;;;;;;;;6316078;28;20065;-71
2024/01/25 08:44:35;;;;;;;16.30;7.57;;;;;;;;;;6312984;28;20055;-71
2024/01/25 08:47:37;;;;;;;16.70;7.13;;;;;;;;;;6312646;28;20044;-71
2024/01/25 08:50:39;;;;;;;14.20;5.70;;;;;;;;;;6316154;28;20036;-71
2024/01/25 08:53:44;;;;;;;21.45;6.93;;;;;;;;;;6310145;28;20040;-71
2024/01/25 08:56:46;;;;;;;33.78;11.57;;;;;;;;;;6310321;28;20047;-71
2024/01/25 08:59:48;;;;;;;53.03;18.25;;;;;;;;;;6297227;28;20043;-71
2024/01/25 09:02:50;;;;;;;48.05;17.15;;;;;;;;;;6312771;28;20068;-71
2024/01/25 09:05:53;;;;;;;23.50;9.90;;;;;;;;;;6297318;28;20075;-71
2024/01/25 09:09:00;;;;;;;10.15;7.00;;;;;;;;;;6308592;28;20040;-71
2024/01/25 09:12:02;;;;;;;9.70;8.70;;;;;;;;;;6296191;28;20055;-71
2024/01/25 09:15:05;;;;;;;7.65;5.32;;;;;;;;;;6309523;28;20502;-71
2024/01/25 09:18:07;;;;;;;4.28;2.25;;;;;;;;;;6310947;28;20593;-71
2024/01/25 09:21:09;;;;;;;15.85;6.53;;;;;;;;;;6307367;28;20094;-71
2024/01/25 09:24:12;;;;;;;13.75;5.60;;;;;;;;;;6293951;28;20048;-71
2024/01/25 09:27:14;;;;;;;22.50;14.43;;;;;;;;;;6308836;28;20795;-71
2024/01/25 09:30:17;;;;;;;18.90;13.30;;;;;;;;;;6310107;28;20602;-72
2024/01/25 09:33:19;;;;;;;12.23;9.48;;;;;;;;;;6321823;28;20636;-69
2024/01/25 09:36:22;;;;;;;6.57;3.47;;;;;;;;;;6320155;28;20039;-70
2024/01/25 09:39:24;;;;;;;14.70;7.20;;;;;;;;;;6299433;28;20051;-70
2024/01/25 09:42:27;;;;;;;8.50;3.92;;;;;;;;;;6315484;28;20055;-71
2024/01/25 09:45:31;;;;;;;19.30;7.57;;;;;;;;;;6297075;28;20051;-70
2024/01/25 09:48:33;;;;;;;17.92;7.18;;;;;;;;;;6316181;28;20572;-69
2024/01/25 09:51:38;;;;;;;6.22;3.67;;;;;;;;;;6313404;28;20033;-69
2024/01/25 09:54:40;;;;;;;14.35;6.45;;;;;;;;;;6316121;28;20044;-69
2024/01/25 09:57:46;;;;;;;13.65;8.30;;;;;;;;;;6313873;28;20044;-70
2024/01/25 10:00:49;;;;;;;10.75;4.28;;;;;;;;;;6297178;28;20028;-70
2024/01/25 10:03:52;;;;;;;7.18;3.35;;;;;;;;;;6317671;28;20130;-70
2024/01/25 10:06:58;;;;;;;9.63;7.68;;;;;;;;;;6323926;28;20727;-71
2024/01/25 10:10:00;;;;;;;8.63;3.33;;;;;;;;;;6290466;28;20036;-71
2024/01/25 10:13:05;;;;;;;7.72;2.47;;;;;;;;;;6325275;28;20084;-71
2024/01/25 10:16:09;;;;;;;7.03;2.58;;;;;;;;;;6319776;28;20040;-70
2024/01/25 10:19:12;;;;;;;4.75;2.13;;;;;;;;;;6319551;28;20170;-71
2024/01/25 10:22:16;;;;;;;9.57;3.15;;;;;;;;;;6313782;28;20048;-70
2024/01/25 10:25:18;;;;;;;7.45;6.18;;;;;;;;;;6308960;28;20541;-70
2024/01/25 10:28:23;;;;;;;7.45;3.97;;;;;;;;;;6320042;28;20051;-70
2024/01/25 10:31:26;;;;;;;9.13;3.10;;;;;;;;;;6329009;28;20046;-71
2024/01/25 10:34:28;;;;;;;5.88;3.03;;;;;;;;;;6299551;28;20105;-70
2024/01/25 10:37:32;;;;;;;5.78;3.38;;;;;;;;;;6317232;28;20511;-70
2024/01/25 10:40:35;;;;;;;6.55;2.53;;;;;;;;;;6288509;28;20044;-70
2024/01/25 10:43:37;;;;;;;4.97;1.67;;;;;;;;;;6311238;28;20039;-70
2024/01/25 10:46:40;;;;;;;7.82;3.15;;;;;;;;;;6314665;28;20059;-70
2024/01/25 10:49:43;;;;;;;9.32;5.85;;;;;;;;;;6286676;28;20601;-71
2024/01/25 10:52:46;;;;;;;7.13;2.83;;;;;;;;;;6306667;28;20044;-71
2024/01/25 10:55:48;;;;;;;9.07;3.25;;;;;;;;;;6290806;28;20542;-70
2024/01/25 10:58:50;;;;;;;9.10;3.13;;;;;;;;;;6324013;28;20043;-70
2024/01/25 11:01:54;;;;;;;9.70;4.80;;;;;;;;;;6303573;28;20044;-70
2024/01/25 11:04:56;;;;;;;6.60;3.03;;;;;;;;;;6298306;28;20048;-70
2024/01/25 11:08:00;;;;;;;9.43;6.63;;;;;;;;;;6314370;28;20138;-70
2024/01/25 11:11:02;;;;;;;6.65;5.50;;;;;;;;;;6296652;28;20127;-70
2024/01/25 11:14:04;;;;;;;7.75;4.03;;;;;;;;;;6305606;28;20048;-70
2024/01/25 11:17:20;;;;;;;8.13;5.03;;;;;;;;;;6312502;28;20052;-69
2024/01/25 11:20:27;;;;;;;9.45;2.95;;;;;;;;;;6311675;28;20051;-69
2024/01/25 11:23:32;;;;;;;11.05;4.45;;;;;;;;;;6318498;28;20194;-71
2024/01/25 11:26:34;;;;;;;9.23;4.80;;;;;;;;;;6296098;28;20052;-70
2024/01/25 11:29:38;;;;;;;9.18;4.28;;;;;;;;;;6310570;28;20048;-70
2024/01/25 11:32:43;;;;;;;9.15;6.53;;;;;;;;;;6309754;28;20048;-70
2024/01/25 11:35:55;;;;;;;7.55;4.15;;;;;;;;;;6316901;28;20110;-71
2024/01/25 11:38:57;;;;;;;6.28;3.03;;;;;;;;;;6292076;28;20051;-70
2024/01/25 11:42:00;;;;;;;6.90;2.97;;;;;;;;;;6315464;28;20127;-70
2024/01/25 11:45:02;;;;;;;11.25;3.25;;;;;;;;;;6271828;28;20139;-70
2024/01/25 11:48:05;;;;;;;11.52;6.50;;;;;;;;;;6309630;28;20652;-70
2024/01/25 11:51:11;;;;;;;11.73;4.40;;;;;;;;;;6298400;28;20056;-71
2024/01/25 11:54:13;;;;;;;9.93;2.70;;;;;;;;;;6318834;28;20052;-70
2024/01/25 11:57:15;;;;;;;7.07;3.38;;;;;;;;;;6323201;28;20189;-71
2024/01/25 12:00:18;;;;;;;11.23;8.60;;;;;;;;;;6317068;28;20051;-70
2024/01/25 12:03:20;;;;;;;10.07;3.63;;;;;;;;;;6319071;28;20040;-70
2024/01/25 12:06:23;;;;;;;9.70;3.80;;;;;;;;;;6294669;28;20062;-70
2024/01/25 12:09:25;;;;;;;6.53;4.20;;;;;;;;;;6297497;28;20039;-70
2024/01/25 12:12:28;;;;;;;9.65;2.42;;;;;;;;;;6312754;28;20063;-71
2024/01/25 12:15:32;;;;;;;5.65;2.65;;;;;;;;;;6304582;28;20052;-70
2024/01/25 12:18:37;;;;;;;6.50;2.28;;;;;;;;;;6297005;28;20102;-70
2024/01/25 12:21:43;;;;;;;7.28;2.53;;;;;;;;;;6311384;28;20040;-71
2024/01/25 12:24:46;;;;;;;3.97;2.00;;;;;;;;;;6283658;28;20090;-70
2024/01/25 12:28:01;;;;;;;12.80;3.80;;;;;;;;;;6316837;28;20048;-71
2024/01/25 12:31:07;;;;;;;6.38;2.83;;;;;;;;;;6309783;28;20529;-70
2024/01/25 12:34:18;;;;;;;8.25;2.72;;;;;;;;;;6306592;28;20131;-70
2024/01/25 12:37:20;;;;;;;11.25;3.17;;;;;;;;;;6314978;28;20059;-70
2024/01/25 12:40:23;;;;;;;8.57;3.92;;;;;;;;;;6308591;28;20803;-70
2024/01/25 12:43:25;;;;;;;7.65;3.08;;;;;;;;;;6312126;28;20056;-70
2024/01/25 12:46:28;;;;;;;8.57;4.57;;;;;;;;;;6293413;28;20272;-70
2024/01/25 12:49:35;;;;;;;6.47;2.38;;;;;;;;;;6306617;28;20739;-70
2024/01/25 12:52:37;;;;;;;6.47;5.38;;;;;;;;;;6307921;28;20600;-69
2024/01/25 12:55:39;;;;;;;9.48;3.20;;;;;;;;;;6310408;28;20601;-70
2024/01/25 12:58:42;;;;;;;10.85;3.90;;;;;;;;;;6299466;28;20056;-70
2024/01/25 13:01:44;;;;;;;8.30;4.30;;;;;;;;;;6297781;28;20047;-70
2024/01/25 13:04:46;;;;;;;10.10;4.40;;;;;;;;;;6283745;28;20146;-71
2024/01/25 13:07:48;;;;;;;11.05;5.32;;;;;;;;;;6305424;28;20040;-71
2024/01/25 13:10:51;;;;;;;9.48;4.35;;;;;;;;;;6290081;28;20044;-71
2024/01/25 13:13:52;;;;;;;9.20;2.97;;;;;;;;;;6303667;28;20052;-70
2024/01/25 13:16:55;;;;;;;9.48;2.78;;;;;;;;;;6306083;28;20053;-72
2024/01/25 13:20:00;;;;;;;5.07;2.75;;;;;;;;;;6299408;28;20044;-72
2024/01/25 13:23:02;;;;;;;10.65;3.50;;;;;;;;;;6306665;28;20340;-71
2024/01/25 13:26:04;;;;;;;9.55;4.25;;;;;;;;;;6313048;28;20106;-71
2024/01/25 13:29:06;;;;;;;12.57;4.05;;;;;;;;;;6312535;28;20039;-71
2024/01/25 13:32:09;;;;;;;6.22;2.65;;;;;;;;;;6292433;28;20044;-71
2024/01/25 13:35:11;;;;;;;7.95;5.57;;;;;;;;;;6307937;28;20059;-71
2024/01/25 13:38:14;;;;;;;12.05;3.53;;;;;;;;;;6314809;28;20783;-71
2024/01/25 13:41:17;;;;;;;5.35;2.10;;;;;;;;;;6300200;28;20052;-73
2024/01/25 13:44:19;;;;;;;6.40;3.63;;;;;;;;;;6274847;28;20123;-71
2024/01/25 13:47:22;;;;;;;9.00;3.28;;;;;;;;;;6317853;28;20058;-72
2024/01/25 13:50:24;;;;;;;6.47;3.15;;;;;;;;;;6321896;28;20056;-74
2024/01/25 13:53:27;;;;;;;15.52;4.45;;;;;;;;;;6314079;28;20078;-71
2024/01/25 13:56:29;;;;;;;9.98;3.58;;;;;;;;;;6304635;28;20059;-71
2024/01/25 13:59:31;;;;;;;7.28;4.75;;;;;;;;;;6312926;28;20055;-71
2024/01/25 14:02:33;;;;;;;8.18;4.25;;;;;;;;;;6316439;28;20048;-72
2024/01/25 14:05:35;;;;;;;7.55;5.45;;;;;;;;;;6316944;28;20101;-70
2024/01/25 14:08:37;;;;;;;6.47;2.70;;;;;;;;;;6292785;28;20048;-71
2024/01/25 14:11:40;;;;;;;5.30;3.08;;;;;;;;;;6307292;28;20186;-70
2024/01/25 14:14:42;;;;;;;7.90;4.32;;;;;;;;;;6286234;28;20049;-70
2024/01/25 14:17:44;;;;;;;8.25;3.92;;;;;;;;;;6296348;28;20121;-71
2024/01/25 14:20:46;;;;;;;6.90;3.40;;;;;;;;;;6314069;28;20077;-70
2024/01/25 14:23:48;;;;;;;4.60;2.28;;;;;;;;;;6315868;28;20050;-70
2024/01/25 14:26:50;;;;;;;9.73;3.30;;;;;;;;;;6318825;28;20495;-71
2024/01/25 14:29:53;;;;;;;7.80;2.60;;;;;;;;;;6311860;28;20127;-70
2024/01/25 14:32:58;;;;;;;11.57;3.38;;;;;;;;;;6312617;28;20037;-71
2024/01/25 14:36:02;;;;;;;7.47;3.30;;;;;;;;;;6314596;28;20589;-70
2024/01/25 14:39:04;;;;;;;6.90;3.28;;;;;;;;;;6311194;28;20040;-70
2024/01/25 14:42:13;;;;;;;7.35;3.50;;;;;;;;;;6316431;28;20071;-70
2024/01/25 14:45:15;;;;;;;4.03;3.00;;;;;;;;;;6311658;28;20058;-70
2024/01/25 14:48:17;;;;;;;9.35;2.72;;;;;;;;;;6312493;28;20859;-71
2024/01/25 14:51:20;;;;;;;6.65;2.90;;;;;;;;;;6292362;28;20051;-69
2024/01/25 14:54:22;;;;;;;8.82;3.25;;;;;;;;;;6315184;28;20805;-70
2024/01/25 14:57:24;;;;;;;11.50;4.88;;;;;;;;;;6315751;28;20184;-70
2024/01/25 15:00:26;;;;;;;9.05;3.63;;;;;;;;;;6311129;28;20055;-70
2024/01/25 15:03:28;;;;;;;5.47;2.15;;;;;;;;;;6288391;28;20128;-70
2024/01/25 15:06:30;;;;;;;6.80;2.92;;;;;;;;;;6310375;28;20055;-70
2024/01/25 15:09:33;;;;;;;4.97;2.40;;;;;;;;;;6307105;28;20059;-70
2024/01/25 15:12:35;;;;;;;11.35;3.70;;;;;;;;;;6318963;28;20044;-71
2024/01/25 15:15:37;;;;;;;6.78;3.60;;;;;;;;;;6311955;28;20052;-70
2024/01/25 15:18:39;;;;;;;5.18;3.08;;;;;;;;;;6306603;28;20043;-71
2024/01/25 15:21:42;;;;;;;9.75;5.20;;;;;;;;;;6293259;28;20549;-71
2024/01/25 15:24:46;;;;;;;12.55;4.75;;;;;;;;;;6318233;28;20036;-71
2024/01/25 15:27:48;;;;;;;8.00;2.80;;;;;;;;;;6314437;28;20043;-71
2024/01/25 15:30:50;;;;;;;7.82;3.75;;;;;;;;;;6309364;28;20545;-71
2024/01/25 15:33:52;;;;;;;10.35;4.30;;;;;;;;;;6295501;28;20059;-71
2024/01/25 15:36:57;;;;;;;9.35;3.72;;;;;;;;;;6281445;28;20079;-70
2024/01/25 15:39:59;;;;;;;13.25;3.28;;;;;;;;;;6316571;28;20079;-72
2024/01/25 15:43:02;;;;;;;10.50;3.25;;;;;;;;;;6291511;28;20047;-70
2024/01/25 15:46:04;;;;;;;6.28;3.50;;;;;;;;;;6308721;28;20044;-71
2024/01/25 15:49:06;;;;;;;13.18;4.85;;;;;;;;;;6310218;28;20040;-71
2024/01/25 15:52:09;;;;;;;8.55;4.15;;;;;;;;;;6309114;28;20142;-71
2024/01/25 15:55:12;;;;;;;21.95;8.32;;;;;;;;;;6309444;28;20048;-70
2024/01/25 15:58:14;;;;;;;24.42;7.93;;;;;;;;;;6312647;28;20060;-72
2024/01/25 16:01:16;;;;;;;26.10;11.70;;;;;;;;;;6310168;28;20660;-71
2024/01/25 16:04:18;;;;;;;26.73;9.15;;;;;;;;;;6308956;28;20047;-70
2024/01/25 16:07:20;;;;;;;12.00;5.57;;;;;;;;;;6309433;28;20055;-71
2024/01/25 16:10:24;;;;;;;6.95;3.60;;;;;;;;;;6289172;28;20044;-71
2024/01/25 16:13:26;;;;;;;5.40;2.75;;;;;;;;;;6309114;28;20036;-71
2024/01/25 16:16:28;;;;;;;7.72;4.93;;;;;;;;;;6313946;28;20047;-71
2024/01/25 16:19:30;;;;;;;10.73;4.43;;;;;;;;;;6291367;28;20253;-70
2024/01/25 16:22:32;;;;;;;14.70;4.10;;;;;;;;;;6313714;28;20055;-70
2024/01/25 16:25:34;;;;;;;5.40;3.13;;;;;;;;;;6309211;28;20047;-71
2024/01/25 16:28:37;;;;;;;7.40;3.55;;;;;;;;;;6290892;28;20044;-71
2024/01/25 16:31:38;;;;;;;7.82;5.30;;;;;;;;;;6290463;28;20586;-71
2024/01/25 16:34:41;;;;;;;11.57;7.38;;;;;;;;;;6307911;28;20589;-71
2024/01/25 16:37:43;;;;;;;7.13;4.95;;;;;;;;;;6312398;28;20047;-71
2024/01/25 16:40:45;;;;;;;14.25;5.13;;;;;;;;;;6310523;28;20044;-71
2024/01/25 16:43:47;;;;;;;10.50;4.22;;;;;;;;;;6288652;28;20039;-72
2024/01/25 16:46:49;;;;;;;11.95;4.47;;;;;;;;;;6312690;28;20051;-72
2024/01/25 16:49:51;;;;;;;4.90;2.97;;;;;;;;;;6294618;28;20198;-73
2024/01/25 16:52:54;;;;;;;6.55;4.15;;;;;;;;;;6306836;28;20119;-72
2024/01/25 16:55:58;;;;;;;9.00;5.53;;;;;;;;;;6309383;28;20055;-72
2024/01/25 16:59:01;;;;;;;7.10;3.85;;;;;;;;;;6296556;28;20052;-71
2024/01/25 17:02:04;;;;;;;7.25;4.40;;;;;;;;;;6270866;28;20039;-71
2024/01/25 17:05:06;;;;;;;8.48;3.28;;;;;;;;;;6287059;28;20632;-71
2024/01/25 17:08:08;;;;;;;8.38;7.07;;;;;;;;;;6284232;28;20791;-70
2024/01/25 17:11:10;;;;;;;7.63;4.30;;;;;;;;;;6312634;28;20052;-72
2024/01/25 17:14:12;;;;;;;4.90;2.92;;;;;;;;;;6258390;28;20062;-72
2024/01/25 17:17:15;;;;;;;7.20;4.15;;;;;;;;;;6308890;28;20055;-73
2024/01/25 17:20:17;;;;;;;7.70;2.60;;;;;;;;;;6310977;28;20047;-73
2024/01/25 17:23:19;;;;;;;9.63;3.22;;;;;;;;;;6307148;28;20574;-71
2024/01/25 17:26:22;;;;;;;9.85;4.53;;;;;;;;;;6308896;28;20052;-72
2024/01/25 17:29:24;;;;;;;10.13;5.55;;;;;;;;;;6307211;28;20054;-73
2024/01/25 17:32:27;;;;;;;10.63;4.90;;;;;;;;;;6309394;28;20157;-71
2024/01/25 17:35:29;;;;;;;10.98;4.65;;;;;;;;;;6302497;28;20161;-73
2024/01/25 17:38:33;;;;;;;9.35;4.95;;;;;;;;;;6306539;28;20098;-73
2024/01/25 17:41:35;;;;;;;10.38;4.97;;;;;;;;;;6284128;28;20117;-71
2024/01/25 17:44:37;;;;;;;14.02;9.00;;;;;;;;;;6283122;28;21014;-71
2024/01/25 17:47:39;;;;;;;13.65;6.25;;;;;;;;;;6272363;28;20077;-72
2024/01/25 17:50:41;;;;;;;11.75;5.03;;;;;;;;;;6306496;28;20052;-72
2024/01/25 17:53:43;;;;;;;6.15;4.53;;;;;;;;;;6307850;28;20044;-74
2024/01/25 17:56:45;;;;;;;9.63;5.18;;;;;;;;;;6300821;28;20083;-73
2024/01/25 17:59:47;;;;;;;13.25;5.85;;;;;;;;;;6305886;28;20055;-73
2024/01/25 18:02:50;;;;;;;10.88;3.35;;;;;;;;;;6299916;28;20055;-72